sensor_id;sensor_type;location;lat;lon;timestamp;temperature;humidity
9103;DHT22;4587;51.434;6.788;2023-12-22T00:01:14;6.70;99.90
9103;DHT22;4587;51.434;6.788;2023-12-22T00:03:43;6.70;99.90
9103;DHT22;4587;51.434;6.788;2023-12-22T00:06:11;6.70;99.90
9103;DHT22;4587;51.434;6.788;2023-12-22T00:08:37;6.70;99.90
9103;DHT22;4587;51.434;6.788;2023-12-22T00:11:02;6.60;99.90
9103;DHT22;4587;51.434;6.788;2023-12-22T00:13:28;6.60;99.90
9103;DHT22;4587;51.434;6.788;2023-12-22T00:15:54;6.70;99.90
9103;DHT22;4587;51.434;6.788;2023-12-22T00:18:19;6.70;99.90
9103;DHT22;4587;51.434;6.788;2023-12-22T00:20:45;6.70;99.90
9103;DHT22;4587;51.434;6.788;2023-12-22T00:23:10;6.80;99.90
9103;DHT22;4587;51.434;6.788;2023-12-22T00:25:36;6.80;99.90
9103;DHT22;4587;51.434;6.788;2023-12-22T00:28:01;6.80;99.90
9103;DHT22;4587;51.434;6.788;2023-12-22T00:30:27;6.80;99.90
9103;DHT22;4587;51.434;6.788;2023-12-22T00:32:52;6.80;99.90
9103;DHT22;4587;51.434;6.788;2023-12-22T00:35:18;6.80;99.90
9103;DHT22;4587;51.434;6.788;2023-12-22T00:37:43;6.80;99.90
9103;DHT22;4587;51.434;6.788;2023-12-22T00:40:09;6.90;99.90
9103;DHT22;4587;51.434;6.788;2023-12-22T00:42:35;6.90;99.90
9103;DHT22;4587;51.434;6.788;2023-12-22T00:45:01;6.90;99.90
9103;DHT22;4587;51.434;6.788;2023-12-22T00:47:27;6.90;99.90
9103;DHT22;4587;51.434;6.788;2023-12-22T00:49:52;7.00;99.90
9103;DHT22;4587;51.434;6.788;2023-12-22T00:52:18;6.90;99.90
9103;DHT22;4587;51.434;6.788;2023-12-22T00:54:43;7.00;99.90
9103;DHT22;4587;51.434;6.788;2023-12-22T00:57:09;7.00;99.90
9103;DHT22;4587;51.434;6.788;2023-12-22T00:59:34;7.10;99.90
9103;DHT22;4587;51.434;6.788;2023-12-22T01:02:00;7.10;99.90
9103;DHT22;4587;51.434;6.788;2023-12-22T01:04:25;7.10;99.90
9103;DHT22;4587;51.434;6.788;2023-12-22T01:06:51;7.10;99.90
9103;DHT22;4587;51.434;6.788;2023-12-22T01:09:21;7.20;99.90
9103;DHT22;4587;51.434;6.788;2023-12-22T01:11:47;7.10;99.90
9103;DHT22;4587;51.434;6.788;2023-12-22T01:14:12;7.10;99.90
9103;DHT22;4587;51.434;6.788;2023-12-22T01:16:39;7.10;99.90
9103;DHT22;4587;51.434;6.788;2023-12-22T01:19:05;7.10;99.90
9103;DHT22;4587;51.434;6.788;2023-12-22T01:21:31;7.00;99.90
9103;DHT22;4587;51.434;6.788;2023-12-22T01:23:56;7.10;99.90
9103;DHT22;4587;51.434;6.788;2023-12-22T01:26:24;7.10;99.90
9103;DHT22;4587;51.434;6.788;2023-12-22T01:28:49;7.10;99.90
9103;DHT22;4587;51.434;6.788;2023-12-22T01:31:15;7.10;99.90
9103;DHT22;4587;51.434;6.788;2023-12-22T01:33:41;7.20;99.90
9103;DHT22;4587;51.434;6.788;2023-12-22T01:36:06;7.20;99.90
9103;DHT22;4587;51.434;6.788;2023-12-22T01:38:32;7.20;99.90
9103;DHT22;4587;51.434;6.788;2023-12-22T01:40:57;7.10;99.90
9103;DHT22;4587;51.434;6.788;2023-12-22T01:43:23;7.20;99.90
9103;DHT22;4587;51.434;6.788;2023-12-22T01:45:54;7.10;99.90
9103;DHT22;4587;51.434;6.788;2023-12-22T01:48:20;6.90;99.90
9103;DHT22;4587;51.434;6.788;2023-12-22T01:50:51;6.80;99.90
9103;DHT22;4587;51.434;6.788;2023-12-22T01:53:19;6.70;99.90
9103;DHT22;4587;51.434;6.788;2023-12-22T01:55:49;6.80;99.90
9103;DHT22;4587;51.434;6.788;2023-12-22T01:58:16;6.70;99.90
9103;DHT22;4587;51.434;6.788;2023-12-22T02:00:42;6.70;99.90
9103;DHT22;4587;51.434;6.788;2023-12-22T02:03:08;6.70;99.90
9103;DHT22;4587;51.434;6.788;2023-12-22T02:05:34;6.60;99.90
9103;DHT22;4587;51.434;6.788;2023-12-22T02:08:00;6.60;99.90
9103;DHT22;4587;51.434;6.788;2023-12-22T02:10:25;6.50;99.90
9103;DHT22;4587;51.434;6.788;2023-12-22T02:12:51;6.50;99.90
9103;DHT22;4587;51.434;6.788;2023-12-22T02:15:17;6.50;99.90
9103;DHT22;4587;51.434;6.788;2023-12-22T02:17:56;6.50;99.90
9103;DHT22;4587;51.434;6.788;2023-12-22T02:20:24;6.40;99.90
9103;DHT22;4587;51.434;6.788;2023-12-22T02:22:53;6.40;99.90
9103;DHT22;4587;51.434;6.788;2023-12-22T02:25:19;6.40;99.90
9103;DHT22;4587;51.434;6.788;2023-12-22T02:27:48;6.30;99.90
9103;DHT22;4587;51.434;6.788;2023-12-22T02:33:10;6.30;99.90
9103;DHT22;4587;51.434;6.788;2023-12-22T02:35:37;6.30;99.90
9103;DHT22;4587;51.434;6.788;2023-12-22T02:38:04;6.30;99.90
9103;DHT22;4587;51.434;6.788;2023-12-22T02:40:31;6.30;99.90
9103;DHT22;4587;51.434;6.788;2023-12-22T02:42:56;6.30;99.90
9103;DHT22;4587;51.434;6.788;2023-12-22T02:45:22;6.40;99.90
9103;DHT22;4587;51.434;6.788;2023-12-22T02:47:48;6.40;99.90
9103;DHT22;4587;51.434;6.788;2023-12-22T02:50:15;6.40;99.90
9103;DHT22;4587;51.434;6.788;2023-12-22T02:52:41;6.40;99.90
9103;DHT22;4587;51.434;6.788;2023-12-22T02:55:08;6.40;99.90
9103;DHT22;4587;51.434;6.788;2023-12-22T02:57:33;6.40;99.90
9103;DHT22;4587;51.434;6.788;2023-12-22T02:59:59;6.30;99.90
9103;DHT22;4587;51.434;6.788;2023-12-22T03:02:25;6.40;99.90
9103;DHT22;4587;51.434;6.788;2023-12-22T03:04:50;6.40;99.90
9103;DHT22;4587;51.434;6.788;2023-12-22T03:07:16;6.40;99.90
9103;DHT22;4587;51.434;6.788;2023-12-22T03:09:42;6.40;99.90
9103;DHT22;4587;51.434;6.788;2023-12-22T03:12:09;6.40;99.90
9103;DHT22;4587;51.434;6.788;2023-12-22T03:14:34;6.30;99.90
9103;DHT22;4587;51.434;6.788;2023-12-22T03:17:05;6.20;99.90
9103;DHT22;4587;51.434;6.788;2023-12-22T03:19:32;6.30;99.90
9103;DHT22;4587;51.434;6.788;2023-12-22T03:21:58;6.30;99.90
9103;DHT22;4587;51.434;6.788;2023-12-22T03:24:24;6.40;99.90
9103;DHT22;4587;51.434;6.788;2023-12-22T03:26:50;6.40;99.90
9103;DHT22;4587;51.434;6.788;2023-12-22T03:29:16;6.30;99.90
9103;DHT22;4587;51.434;6.788;2023-12-22T03:31:41;6.20;99.90
9103;DHT22;4587;51.434;6.788;2023-12-22T03:34:07;6.20;99.90
9103;DHT22;4587;51.434;6.788;2023-12-22T03:36:33;6.20;99.90
9103;DHT22;4587;51.434;6.788;2023-12-22T03:38:58;6.20;99.90
9103;DHT22;4587;51.434;6.788;2023-12-22T03:41:24;6.20;99.90
9103;DHT22;4587;51.434;6.788;2023-12-22T03:43:49;6.10;99.90
9103;DHT22;4587;51.434;6.788;2023-12-22T03:46:15;6.20;99.90
9103;DHT22;4587;51.434;6.788;2023-12-22T03:48:40;6.20;99.90
9103;DHT22;4587;51.434;6.788;2023-12-22T03:51:06;6.10;99.90
9103;DHT22;4587;51.434;6.788;2023-12-22T03:53:32;6.10;99.90
9103;DHT22;4587;51.434;6.788;2023-12-22T03:55:57;6.10;99.90
9103;DHT22;4587;51.434;6.788;2023-12-22T03:58:23;6.10;99.90
9103;DHT22;4587;51.434;6.788;2023-12-22T04:00:48;6.20;99.90
9103;DHT22;4587;51.434;6.788;2023-12-22T04:03:14;6.20;99.90
9103;DHT22;4587;51.434;6.788;2023-12-22T04:05:40;6.20;99.90
9103;DHT22;4587;51.434;6.788;2023-12-22T04:08:06;6.20;99.90
9103;DHT22;4587;51.434;6.788;2023-12-22T04:10:31;6.20;99.90
9103;DHT22;4587;51.434;6.788;2023-12-22T04:12:57;6.30;99.90
9103;DHT22;4587;51.434;6.788;2023-12-22T04:15:23;6.30;99.90
9103;DHT22;4587;51.434;6.788;2023-12-22T04:17:48;6.30;99.90
9103;DHT22;4587;51.434;6.788;2023-12-22T04:20:15;6.30;99.90
9103;DHT22;4587;51.434;6.788;2023-12-22T04:22:40;6.30;99.90
9103;DHT22;4587;51.434;6.788;2023-12-22T04:25:06;6.30;99.90
9103;DHT22;4587;51.434;6.788;2023-12-22T04:27:33;6.40;99.90
9103;DHT22;4587;51.434;6.788;2023-12-22T04:29:58;6.40;99.90
9103;DHT22;4587;51.434;6.788;2023-12-22T04:32:24;6.50;99.90
9103;DHT22;4587;51.434;6.788;2023-12-22T04:34:51;6.50;99.90
9103;DHT22;4587;51.434;6.788;2023-12-22T04:37:16;6.60;99.90
9103;DHT22;4587;51.434;6.788;2023-12-22T04:39:42;6.70;99.90
9103;DHT22;4587;51.434;6.788;2023-12-22T04:42:07;6.70;99.90
9103;DHT22;4587;51.434;6.788;2023-12-22T04:44:33;6.80;99.90
9103;DHT22;4587;51.434;6.788;2023-12-22T04:46:58;6.80;99.90
9103;DHT22;4587;51.434;6.788;2023-12-22T04:49:24;6.90;99.90
9103;DHT22;4587;51.434;6.788;2023-12-22T04:51:49;6.80;99.90
9103;DHT22;4587;51.434;6.788;2023-12-22T04:54:15;6.80;99.90
9103;DHT22;4587;51.434;6.788;2023-12-22T04:56:40;6.80;99.90
9103;DHT22;4587;51.434;6.788;2023-12-22T04:59:06;6.70;99.90
9103;DHT22;4587;51.434;6.788;2023-12-22T05:01:31;6.70;99.90
9103;DHT22;4587;51.434;6.788;2023-12-22T05:03:57;6.70;99.90
9103;DHT22;4587;51.434;6.788;2023-12-22T05:06:22;6.70;99.90
9103;DHT22;4587;51.434;6.788;2023-12-22T05:08:48;6.70;99.90
9103;DHT22;4587;51.434;6.788;2023-12-22T05:11:13;6.80;99.90
9103;DHT22;4587;51.434;6.788;2023-12-22T05:13:39;6.80;99.90
9103;DHT22;4587;51.434;6.788;2023-12-22T05:16:05;6.60;99.90
9103;DHT22;4587;51.434;6.788;2023-12-22T05:18:31;6.60;99.90
9103;DHT22;4587;51.434;6.788;2023-12-22T05:20:57;6.60;99.90
9103;DHT22;4587;51.434;6.788;2023-12-22T05:23:22;6.50;99.90
9103;DHT22;4587;51.434;6.788;2023-12-22T05:25:48;6.50;99.90
9103;DHT22;4587;51.434;6.788;2023-12-22T05:28:13;6.50;99.90
9103;DHT22;4587;51.434;6.788;2023-12-22T05:30:39;6.40;99.90
9103;DHT22;4587;51.434;6.788;2023-12-22T05:33:04;6.40;99.90
9103;DHT22;4587;51.434;6.788;2023-12-22T05:35:30;6.30;99.90
9103;DHT22;4587;51.434;6.788;2023-12-22T05:37:55;6.30;99.90
9103;DHT22;4587;51.434;6.788;2023-12-22T05:40:21;6.40;99.90
9103;DHT22;4587;51.434;6.788;2023-12-22T05:42:46;6.40;99.90
9103;DHT22;4587;51.434;6.788;2023-12-22T05:45:13;6.40;99.90
9103;DHT22;4587;51.434;6.788;2023-12-22T05:47:39;6.40;99.90
9103;DHT22;4587;51.434;6.788;2023-12-22T05:50:05;6.40;99.90
9103;DHT22;4587;51.434;6.788;2023-12-22T05:52:31;6.40;99.90
9103;DHT22;4587;51.434;6.788;2023-12-22T05:54:56;6.30;99.90
9103;DHT22;4587;51.434;6.788;2023-12-22T05:57:22;6.30;99.90
9103;DHT22;4587;51.434;6.788;2023-12-22T05:59:47;6.30;99.90
9103;DHT22;4587;51.434;6.788;2023-12-22T06:02:13;6.30;99.90
9103;DHT22;4587;51.434;6.788;2023-12-22T06:04:38;6.40;99.90
9103;DHT22;4587;51.434;6.788;2023-12-22T06:07:04;6.40;99.90
9103;DHT22;4587;51.434;6.788;2023-12-22T06:09:30;6.50;99.90
9103;DHT22;4587;51.434;6.788;2023-12-22T06:11:55;6.50;99.90
9103;DHT22;4587;51.434;6.788;2023-12-22T06:14:21;6.50;99.90
9103;DHT22;4587;51.434;6.788;2023-12-22T06:16:47;6.50;99.90
9103;DHT22;4587;51.434;6.788;2023-12-22T06:19:12;6.40;99.90
9103;DHT22;4587;51.434;6.788;2023-12-22T06:21:38;6.50;99.90
9103;DHT22;4587;51.434;6.788;2023-12-22T06:24:04;6.50;99.90
9103;DHT22;4587;51.434;6.788;2023-12-22T06:26:30;6.50;99.90
9103;DHT22;4587;51.434;6.788;2023-12-22T06:28:56;6.50;99.90
9103;DHT22;4587;51.434;6.788;2023-12-22T06:31:21;6.50;99.90
9103;DHT22;4587;51.434;6.788;2023-12-22T06:33:48;6.40;99.90
9103;DHT22;4587;51.434;6.788;2023-12-22T06:36:24;6.40;99.90
9103;DHT22;4587;51.434;6.788;2023-12-22T06:38:51;6.40;99.90
9103;DHT22;4587;51.434;6.788;2023-12-22T06:41:23;6.50;99.90
9103;DHT22;4587;51.434;6.788;2023-12-22T06:43:49;6.40;99.90
9103;DHT22;4587;51.434;6.788;2023-12-22T06:46:19;6.40;99.90
9103;DHT22;4587;51.434;6.788;2023-12-22T06:48:45;6.40;99.90
9103;DHT22;4587;51.434;6.788;2023-12-22T06:51:27;6.40;99.90
9103;DHT22;4587;51.434;6.788;2023-12-22T06:53:54;6.50;99.90
9103;DHT22;4587;51.434;6.788;2023-12-22T06:56:21;6.50;99.90
9103;DHT22;4587;51.434;6.788;2023-12-22T06:58:48;6.60;99.90
9103;DHT22;4587;51.434;6.788;2023-12-22T07:01:34;6.70;99.90
9103;DHT22;4587;51.434;6.788;2023-12-22T07:04:01;6.70;99.90
9103;DHT22;4587;51.434;6.788;2023-12-22T07:06:28;6.80;99.90
9103;DHT22;4587;51.434;6.788;2023-12-22T07:11:49;7.00;99.90
9103;DHT22;4587;51.434;6.788;2023-12-22T07:14:21;7.00;99.90
9103;DHT22;4587;51.434;6.788;2023-12-22T07:16:46;7.20;99.90
9103;DHT22;4587;51.434;6.788;2023-12-22T07:19:12;7.20;99.90
9103;DHT22;4587;51.434;6.788;2023-12-22T07:21:41;7.20;99.90
9103;DHT22;4587;51.434;6.788;2023-12-22T07:24:07;7.30;99.90
9103;DHT22;4587;51.434;6.788;2023-12-22T07:26:33;7.40;99.90
9103;DHT22;4587;51.434;6.788;2023-12-22T07:28:58;7.40;99.90
9103;DHT22;4587;51.434;6.788;2023-12-22T07:31:24;7.50;99.90
9103;DHT22;4587;51.434;6.788;2023-12-22T07:33:50;7.60;99.90
9103;DHT22;4587;51.434;6.788;2023-12-22T07:36:17;7.60;99.90
9103;DHT22;4587;51.434;6.788;2023-12-22T07:38:44;7.70;99.90
9103;DHT22;4587;51.434;6.788;2023-12-22T07:41:09;7.70;99.90
9103;DHT22;4587;51.434;6.788;2023-12-22T07:43:36;7.70;99.90
9103;DHT22;4587;51.434;6.788;2023-12-22T07:46:01;7.70;99.90
9103;DHT22;4587;51.434;6.788;2023-12-22T07:48:27;7.70;99.90
9103;DHT22;4587;51.434;6.788;2023-12-22T07:50:52;7.80;99.90
9103;DHT22;4587;51.434;6.788;2023-12-22T07:53:19;7.80;99.90
9103;DHT22;4587;51.434;6.788;2023-12-22T07:55:45;7.90;99.90
9103;DHT22;4587;51.434;6.788;2023-12-22T07:58:12;7.90;99.90
9103;DHT22;4587;51.434;6.788;2023-12-22T08:00:40;8.00;99.90
9103;DHT22;4587;51.434;6.788;2023-12-22T08:03:06;8.00;99.90
9103;DHT22;4587;51.434;6.788;2023-12-22T08:05:31;8.00;99.90
9103;DHT22;4587;51.434;6.788;2023-12-22T08:07:58;8.00;99.90
9103;DHT22;4587;51.434;6.788;2023-12-22T08:10:24;8.00;99.90
9103;DHT22;4587;51.434;6.788;2023-12-22T08:12:49;8.00;99.90
9103;DHT22;4587;51.434;6.788;2023-12-22T08:15:15;8.00;99.90
9103;DHT22;4587;51.434;6.788;2023-12-22T08:17:50;8.10;99.90
9103;DHT22;4587;51.434;6.788;2023-12-22T08:20:20;8.10;99.90
9103;DHT22;4587;51.434;6.788;2023-12-22T08:22:47;8.10;99.90
9103;DHT22;4587;51.434;6.788;2023-12-22T08:25:13;8.20;99.90
9103;DHT22;4587;51.434;6.788;2023-12-22T08:27:38;8.20;99.90
9103;DHT22;4587;51.434;6.788;2023-12-22T08:30:04;8.20;99.90
9103;DHT22;4587;51.434;6.788;2023-12-22T08:32:30;8.20;99.90
9103;DHT22;4587;51.434;6.788;2023-12-22T08:34:56;8.30;99.90
9103;DHT22;4587;51.434;6.788;2023-12-22T08:37:21;8.30;99.90
9103;DHT22;4587;51.434;6.788;2023-12-22T08:39:47;8.30;99.90
9103;DHT22;4587;51.434;6.788;2023-12-22T08:42:12;8.30;99.90
9103;DHT22;4587;51.434;6.788;2023-12-22T08:44:38;8.40;99.90
9103;DHT22;4587;51.434;6.788;2023-12-22T08:47:03;8.50;99.90
9103;DHT22;4587;51.434;6.788;2023-12-22T08:49:29;8.40;99.90
9103;DHT22;4587;51.434;6.788;2023-12-22T08:51:54;8.50;99.90
9103;DHT22;4587;51.434;6.788;2023-12-22T08:54:20;8.60;99.90
9103;DHT22;4587;51.434;6.788;2023-12-22T08:56:45;8.60;99.90
9103;DHT22;4587;51.434;6.788;2023-12-22T08:59:11;8.70;99.90
9103;DHT22;4587;51.434;6.788;2023-12-22T09:01:37;8.70;99.90
9103;DHT22;4587;51.434;6.788;2023-12-22T09:04:03;8.70;99.90
9103;DHT22;4587;51.434;6.788;2023-12-22T09:06:28;8.70;99.90
9103;DHT22;4587;51.434;6.788;2023-12-22T09:08:54;8.70;99.90
9103;DHT22;4587;51.434;6.788;2023-12-22T09:11:20;8.70;99.90
9103;DHT22;4587;51.434;6.788;2023-12-22T09:13:46;8.70;99.90
9103;DHT22;4587;51.434;6.788;2023-12-22T09:16:12;8.80;99.90
9103;DHT22;4587;51.434;6.788;2023-12-22T09:18:40;8.70;99.90
9103;DHT22;4587;51.434;6.788;2023-12-22T09:21:06;8.70;99.90
9103;DHT22;4587;51.434;6.788;2023-12-22T09:23:32;8.80;99.90
9103;DHT22;4587;51.434;6.788;2023-12-22T09:25:57;8.80;99.90
9103;DHT22;4587;51.434;6.788;2023-12-22T09:28:23;8.80;99.90
9103;DHT22;4587;51.434;6.788;2023-12-22T09:30:49;8.80;99.90
9103;DHT22;4587;51.434;6.788;2023-12-22T09:33:15;8.90;99.90
9103;DHT22;4587;51.434;6.788;2023-12-22T09:35:40;8.90;99.90
9103;DHT22;4587;51.434;6.788;2023-12-22T09:38:08;9.00;99.90
9103;DHT22;4587;51.434;6.788;2023-12-22T09:40:40;9.00;99.90
9103;DHT22;4587;51.434;6.788;2023-12-22T09:43:08;9.00;99.90
9103;DHT22;4587;51.434;6.788;2023-12-22T09:45:34;8.90;99.90
9103;DHT22;4587;51.434;6.788;2023-12-22T09:48:01;8.90;99.90
9103;DHT22;4587;51.434;6.788;2023-12-22T09:50:30;8.90;99.90
9103;DHT22;4587;51.434;6.788;2023-12-22T09:52:56;8.90;99.90
9103;DHT22;4587;51.434;6.788;2023-12-22T09:55:22;8.90;99.90
9103;DHT22;4587;51.434;6.788;2023-12-22T09:57:49;8.80;99.90
9103;DHT22;4587;51.434;6.788;2023-12-22T10:00:16;8.80;99.90
9103;DHT22;4587;51.434;6.788;2023-12-22T10:02:42;8.80;99.90
9103;DHT22;4587;51.434;6.788;2023-12-22T10:05:15;8.80;99.90
9103;DHT22;4587;51.434;6.788;2023-12-22T10:07:44;8.90;99.90
9103;DHT22;4587;51.434;6.788;2023-12-22T10:10:12;8.90;99.90
9103;DHT22;4587;51.434;6.788;2023-12-22T10:12:38;9.00;99.90
9103;DHT22;4587;51.434;6.788;2023-12-22T10:15:05;9.00;99.90
9103;DHT22;4587;51.434;6.788;2023-12-22T10:17:32;9.10;99.90
9103;DHT22;4587;51.434;6.788;2023-12-22T10:19:58;9.20;99.90
9103;DHT22;4587;51.434;6.788;2023-12-22T10:22:23;9.30;99.90
9103;DHT22;4587;51.434;6.788;2023-12-22T10:24:49;9.30;99.90
9103;DHT22;4587;51.434;6.788;2023-12-22T10:27:19;9.20;99.90
9103;DHT22;4587;51.434;6.788;2023-12-22T10:29:56;9.20;99.90
9103;DHT22;4587;51.434;6.788;2023-12-22T10:32:22;9.30;99.90
9103;DHT22;4587;51.434;6.788;2023-12-22T10:34:51;9.30;99.90
9103;DHT22;4587;51.434;6.788;2023-12-22T10:37:18;9.30;99.90
9103;DHT22;4587;51.434;6.788;2023-12-22T10:39:44;9.30;99.90
9103;DHT22;4587;51.434;6.788;2023-12-22T10:42:14;9.30;99.90
9103;DHT22;4587;51.434;6.788;2023-12-22T10:44:40;9.30;99.90
9103;DHT22;4587;51.434;6.788;2023-12-22T10:47:09;9.30;99.90
9103;DHT22;4587;51.434;6.788;2023-12-22T10:49:36;9.30;99.90
9103;DHT22;4587;51.434;6.788;2023-12-22T10:52:02;9.30;99.90
9103;DHT22;4587;51.434;6.788;2023-12-22T10:54:27;9.20;99.90
9103;DHT22;4587;51.434;6.788;2023-12-22T10:56:58;9.20;99.90
9103;DHT22;4587;51.434;6.788;2023-12-22T10:59:28;9.20;99.90
9103;DHT22;4587;51.434;6.788;2023-12-22T11:01:57;9.10;99.90
9103;DHT22;4587;51.434;6.788;2023-12-22T11:04:28;9.10;99.90
9103;DHT22;4587;51.434;6.788;2023-12-22T11:06:57;9.10;99.90
9103;DHT22;4587;51.434;6.788;2023-12-22T11:09:23;9.10;99.90
9103;DHT22;4587;51.434;6.788;2023-12-22T11:11:51;9.00;99.90
9103;DHT22;4587;51.434;6.788;2023-12-22T11:14:17;9.00;99.90
9103;DHT22;4587;51.434;6.788;2023-12-22T11:16:43;9.10;99.90
9103;DHT22;4587;51.434;6.788;2023-12-22T11:19:14;9.10;99.90
9103;DHT22;4587;51.434;6.788;2023-12-22T11:21:40;9.10;99.90
9103;DHT22;4587;51.434;6.788;2023-12-22T11:24:07;9.20;99.90
9103;DHT22;4587;51.434;6.788;2023-12-22T11:26:33;9.20;99.90
9103;DHT22;4587;51.434;6.788;2023-12-22T11:29:01;9.30;99.90
9103;DHT22;4587;51.434;6.788;2023-12-22T11:31:28;9.30;99.90
9103;DHT22;4587;51.434;6.788;2023-12-22T11:33:58;9.40;99.90
9103;DHT22;4587;51.434;6.788;2023-12-22T11:36:24;9.50;99.90
9103;DHT22;4587;51.434;6.788;2023-12-22T11:38:51;9.60;99.90
9103;DHT22;4587;51.434;6.788;2023-12-22T11:41:19;9.70;99.90
9103;DHT22;4587;51.434;6.788;2023-12-22T11:43:47;9.90;99.90
9103;DHT22;4587;51.434;6.788;2023-12-22T11:46:12;9.90;99.90
9103;DHT22;4587;51.434;6.788;2023-12-22T11:48:50;10.00;99.90
9103;DHT22;4587;51.434;6.788;2023-12-22T11:51:17;10.00;99.90
9103;DHT22;4587;51.434;6.788;2023-12-22T11:53:43;10.10;99.90
9103;DHT22;4587;51.434;6.788;2023-12-22T11:56:10;10.20;99.90
9103;DHT22;4587;51.434;6.788;2023-12-22T11:58:37;10.20;99.90
9103;DHT22;4587;51.434;6.788;2023-12-22T12:01:13;10.20;99.90
9103;DHT22;4587;51.434;6.788;2023-12-22T12:03:51;10.30;99.90
9103;DHT22;4587;51.434;6.788;2023-12-22T12:06:31;10.20;99.90
9103;DHT22;4587;51.434;6.788;2023-12-22T12:09:03;10.20;99.90
9103;DHT22;4587;51.434;6.788;2023-12-22T12:14:32;10.30;99.90
9103;DHT22;4587;51.434;6.788;2023-12-22T12:17:06;10.30;99.90
9103;DHT22;4587;51.434;6.788;2023-12-22T12:19:41;10.50;99.90
9103;DHT22;4587;51.434;6.788;2023-12-22T12:22:07;10.50;99.90
9103;DHT22;4587;51.434;6.788;2023-12-22T12:24:33;10.60;99.90
9103;DHT22;4587;51.434;6.788;2023-12-22T12:26:59;10.60;99.90
9103;DHT22;4587;51.434;6.788;2023-12-22T12:29:25;10.70;99.90
9103;DHT22;4587;51.434;6.788;2023-12-22T12:31:51;10.70;99.90
9103;DHT22;4587;51.434;6.788;2023-12-22T12:34:16;10.60;99.90
9103;DHT22;4587;51.434;6.788;2023-12-22T12:36:46;10.60;99.90
9103;DHT22;4587;51.434;6.788;2023-12-22T12:39:15;10.60;99.90
9103;DHT22;4587;51.434;6.788;2023-12-22T12:41:42;10.60;99.90
9103;DHT22;4587;51.434;6.788;2023-12-22T12:44:11;10.60;99.90
9103;DHT22;4587;51.434;6.788;2023-12-22T12:46:38;10.50;99.90
9103;DHT22;4587;51.434;6.788;2023-12-22T12:49:08;10.40;99.90
9103;DHT22;4587;51.434;6.788;2023-12-22T12:51:42;10.30;99.90
9103;DHT22;4587;51.434;6.788;2023-12-22T12:54:09;10.20;99.90
9103;DHT22;4587;51.434;6.788;2023-12-22T12:56:41;10.20;99.90
9103;DHT22;4587;51.434;6.788;2023-12-22T12:59:08;10.10;99.90
9103;DHT22;4587;51.434;6.788;2023-12-22T13:01:41;10.10;99.90
9103;DHT22;4587;51.434;6.788;2023-12-22T13:04:07;10.10;99.90
9103;DHT22;4587;51.434;6.788;2023-12-22T13:06:33;10.00;99.90
9103;DHT22;4587;51.434;6.788;2023-12-22T13:09:00;9.90;99.90
9103;DHT22;4587;51.434;6.788;2023-12-22T13:11:27;9.90;99.90
9103;DHT22;4587;51.434;6.788;2023-12-22T13:13:54;9.90;99.90
9103;DHT22;4587;51.434;6.788;2023-12-22T13:16:24;9.90;99.90
9103;DHT22;4587;51.434;6.788;2023-12-22T13:18:57;9.90;99.90
9103;DHT22;4587;51.434;6.788;2023-12-22T13:21:23;9.80;99.90
9103;DHT22;4587;51.434;6.788;2023-12-22T13:24:08;9.90;99.90
9103;DHT22;4587;51.434;6.788;2023-12-22T13:26:34;9.90;99.90
9103;DHT22;4587;51.434;6.788;2023-12-22T13:29:00;10.00;99.90
9103;DHT22;4587;51.434;6.788;2023-12-22T13:31:26;10.00;99.90
9103;DHT22;4587;51.434;6.788;2023-12-22T13:33:52;10.00;99.90
9103;DHT22;4587;51.434;6.788;2023-12-22T13:36:18;10.10;99.90
9103;DHT22;4587;51.434;6.788;2023-12-22T13:38:49;10.10;99.90
9103;DHT22;4587;51.434;6.788;2023-12-22T13:41:16;10.10;99.90
9103;DHT22;4587;51.434;6.788;2023-12-22T13:43:42;10.20;99.90
9103;DHT22;4587;51.434;6.788;2023-12-22T13:46:10;10.20;99.90
9103;DHT22;4587;51.434;6.788;2023-12-22T13:48:36;10.10;99.90
9103;DHT22;4587;51.434;6.788;2023-12-22T13:51:02;10.20;99.90
9103;DHT22;4587;51.434;6.788;2023-12-22T13:53:28;10.10;99.90
9103;DHT22;4587;51.434;6.788;2023-12-22T13:55:58;10.20;99.90
9103;DHT22;4587;51.434;6.788;2023-12-22T13:58:25;10.20;99.90
9103;DHT22;4587;51.434;6.788;2023-12-22T14:00:51;10.20;99.90
9103;DHT22;4587;51.434;6.788;2023-12-22T14:03:17;10.20;99.90
9103;DHT22;4587;51.434;6.788;2023-12-22T14:05:49;10.20;99.90
9103;DHT22;4587;51.434;6.788;2023-12-22T14:08:15;10.30;99.90
9103;DHT22;4587;51.434;6.788;2023-12-22T14:10:59;10.40;99.90
9103;DHT22;4587;51.434;6.788;2023-12-22T14:13:26;10.50;99.90
9103;DHT22;4587;51.434;6.788;2023-12-22T14:15:52;10.50;99.90
9103;DHT22;4587;51.434;6.788;2023-12-22T14:18:18;10.50;99.90
9103;DHT22;4587;51.434;6.788;2023-12-22T14:20:43;10.60;99.90
9103;DHT22;4587;51.434;6.788;2023-12-22T14:23:11;10.60;99.90
9103;DHT22;4587;51.434;6.788;2023-12-22T14:25:44;10.70;99.90
9103;DHT22;4587;51.434;6.788;2023-12-22T14:28:11;10.70;99.90
9103;DHT22;4587;51.434;6.788;2023-12-22T14:30:36;10.80;99.90
9103;DHT22;4587;51.434;6.788;2023-12-22T14:33:02;10.80;99.90
9103;DHT22;4587;51.434;6.788;2023-12-22T14:35:28;10.70;99.90
9103;DHT22;4587;51.434;6.788;2023-12-22T14:37:53;10.70;99.90
9103;DHT22;4587;51.434;6.788;2023-12-22T14:40:19;10.70;99.90
9103;DHT22;4587;51.434;6.788;2023-12-22T14:42:44;10.70;99.90
9103;DHT22;4587;51.434;6.788;2023-12-22T14:45:10;10.70;99.90
9103;DHT22;4587;51.434;6.788;2023-12-22T14:47:36;10.70;99.90
9103;DHT22;4587;51.434;6.788;2023-12-22T14:50:02;10.70;99.90
9103;DHT22;4587;51.434;6.788;2023-12-22T14:52:32;10.60;99.90
9103;DHT22;4587;51.434;6.788;2023-12-22T14:54:59;10.60;99.90
9103;DHT22;4587;51.434;6.788;2023-12-22T14:57:24;10.60;99.90
9103;DHT22;4587;51.434;6.788;2023-12-22T14:59:50;10.60;99.90
9103;DHT22;4587;51.434;6.788;2023-12-22T15:02:16;10.60;99.90
9103;DHT22;4587;51.434;6.788;2023-12-22T15:04:41;10.60;99.90
9103;DHT22;4587;51.434;6.788;2023-12-22T15:07:07;10.60;99.90
9103;DHT22;4587;51.434;6.788;2023-12-22T15:09:33;10.60;99.90
9103;DHT22;4587;51.434;6.788;2023-12-22T15:12:00;10.60;99.90
9103;DHT22;4587;51.434;6.788;2023-12-22T15:14:25;10.50;99.90
9103;DHT22;4587;51.434;6.788;2023-12-22T15:16:51;10.50;99.90
9103;DHT22;4587;51.434;6.788;2023-12-22T15:19:17;10.40;99.90
9103;DHT22;4587;51.434;6.788;2023-12-22T15:21:43;10.20;99.90
9103;DHT22;4587;51.434;6.788;2023-12-22T15:24:09;10.20;99.90
9103;DHT22;4587;51.434;6.788;2023-12-22T15:26:35;10.10;99.90
9103;DHT22;4587;51.434;6.788;2023-12-22T15:29:02;10.10;99.90
9103;DHT22;4587;51.434;6.788;2023-12-22T15:31:28;10.10;99.90
9103;DHT22;4587;51.434;6.788;2023-12-22T15:33:57;10.00;99.90
9103;DHT22;4587;51.434;6.788;2023-12-22T15:36:23;10.10;99.90
9103;DHT22;4587;51.434;6.788;2023-12-22T15:38:50;10.10;99.90
9103;DHT22;4587;51.434;6.788;2023-12-22T15:41:16;10.10;99.90
9103;DHT22;4587;51.434;6.788;2023-12-22T15:43:42;10.10;99.90
9103;DHT22;4587;51.434;6.788;2023-12-22T15:46:08;10.10;99.90
9103;DHT22;4587;51.434;6.788;2023-12-22T15:48:35;10.20;99.90
9103;DHT22;4587;51.434;6.788;2023-12-22T15:51:08;10.20;99.90
9103;DHT22;4587;51.434;6.788;2023-12-22T15:53:37;10.20;99.90
9103;DHT22;4587;51.434;6.788;2023-12-22T15:56:04;10.20;99.90
9103;DHT22;4587;51.434;6.788;2023-12-22T15:58:30;10.20;99.90
9103;DHT22;4587;51.434;6.788;2023-12-22T16:00:56;10.20;99.90
9103;DHT22;4587;51.434;6.788;2023-12-22T16:03:22;10.20;99.90
9103;DHT22;4587;51.434;6.788;2023-12-22T16:05:48;10.20;99.90
9103;DHT22;4587;51.434;6.788;2023-12-22T16:08:13;10.10;99.90
9103;DHT22;4587;51.434;6.788;2023-12-22T16:10:39;10.10;99.90
9103;DHT22;4587;51.434;6.788;2023-12-22T16:13:05;10.10;99.90
9103;DHT22;4587;51.434;6.788;2023-12-22T16:15:31;10.10;99.90
9103;DHT22;4587;51.434;6.788;2023-12-22T16:17:57;10.10;99.90
9103;DHT22;4587;51.434;6.788;2023-12-22T16:20:23;10.10;99.90